sensor_id;sensor_type;location;lat;lon;timestamp;P1;durP1;ratioP1;P2;durP2;ratioP2
72684;SDS011;61365;52.162;4.500;2022-08-19T00:01:52;11.30;;;4.90;;
72684;SDS011;61365;52.162;4.500;2022-08-19T00:04:23;10.82;;;5.57;;
72684;SDS011;61365;52.162;4.500;2022-08-19T00:06:53;8.27;;;5.10;;
72684;SDS011;61365;52.162;4.500;2022-08-19T00:09:21;8.82;;;4.80;;
72684;SDS011;61365;52.162;4.500;2022-08-19T00:11:49;10.07;;;5.03;;
72684;SDS011;61365;52.162;4.500;2022-08-19T00:14:18;9.77;;;5.20;;
72684;SDS011;61365;52.162;4.500;2022-08-19T00:16:46;11.25;;;5.78;;
72684;SDS011;61365;52.162;4.500;2022-08-19T00:19:14;10.27;;;5.15;;
72684;SDS011;61365;52.162;4.500;2022-08-19T00:21:41;14.07;;;5.60;;
72684;SDS011;61365;52.162;4.500;2022-08-19T00:24:09;11.20;;;6.03;;
72684;SDS011;61365;52.162;4.500;2022-08-19T00:26:39;11.20;;;5.15;;
72684;SDS011;61365;52.162;4.500;2022-08-19T00:29:07;11.52;;;5.63;;
72684;SDS011;61365;52.162;4.500;2022-08-19T00:31:37;7.75;;;4.88;;
72684;SDS011;61365;52.162;4.500;2022-08-19T00:34:04;8.73;;;4.78;;
72684;SDS011;61365;52.162;4.500;2022-08-19T00:36:30;9.98;;;5.13;;
72684;SDS011;61365;52.162;4.500;2022-08-19T00:38:58;10.93;;;4.72;;
72684;SDS011;61365;52.162;4.500;2022-08-19T00:41:25;10.52;;;5.80;;
72684;SDS011;61365;52.162;4.500;2022-08-19T00:44:00;11.70;;;5.50;;
72684;SDS011;61365;52.162;4.500;2022-08-19T00:46:34;8.00;;;4.90;;
72684;SDS011;61365;52.162;4.500;2022-08-19T00:49:06;11.10;;;4.47;;
72684;SDS011;61365;52.162;4.500;2022-08-19T00:51:42;11.52;;;5.30;;
72684;SDS011;61365;52.162;4.500;2022-08-19T00:54:14;14.53;;;5.43;;
72684;SDS011;61365;52.162;4.500;2022-08-19T00:56:41;14.02;;;6.20;;
72684;SDS011;61365;52.162;4.500;2022-08-19T00:59:08;10.50;;;5.45;;
72684;SDS011;61365;52.162;4.500;2022-08-19T01:01:39;9.90;;;4.78;;
72684;SDS011;61365;52.162;4.500;2022-08-19T01:04:09;8.40;;;4.63;;
72684;SDS011;61365;52.162;4.500;2022-08-19T01:06:36;7.32;;;4.57;;
72684;SDS011;61365;52.162;4.500;2022-08-19T01:09:06;10.15;;;5.07;;
72684;SDS011;61365;52.162;4.500;2022-08-19T01:11:35;9.43;;;5.53;;
72684;SDS011;61365;52.162;4.500;2022-08-19T01:14:08;10.07;;;6.07;;
72684;SDS011;61365;52.162;4.500;2022-08-19T01:16:36;11.00;;;6.10;;
72684;SDS011;61365;52.162;4.500;2022-08-19T01:22:12;9.73;;;6.22;;
72684;SDS011;61365;52.162;4.500;2022-08-19T01:24:48;12.32;;;6.45;;
72684;SDS011;61365;52.162;4.500;2022-08-19T01:27:16;12.43;;;7.25;;
72684;SDS011;61365;52.162;4.500;2022-08-19T01:29:44;10.30;;;6.78;;
72684;SDS011;61365;52.162;4.500;2022-08-19T01:32:12;12.82;;;7.22;;
72684;SDS011;61365;52.162;4.500;2022-08-19T01:34:42;15.30;;;6.80;;
72684;SDS011;61365;52.162;4.500;2022-08-19T01:37:13;13.63;;;7.50;;
72684;SDS011;61365;52.162;4.500;2022-08-19T01:39:40;15.73;;;8.23;;
72684;SDS011;61365;52.162;4.500;2022-08-19T01:42:08;11.77;;;6.72;;
72684;SDS011;61365;52.162;4.500;2022-08-19T01:44:38;16.95;;;8.63;;
72684;SDS011;61365;52.162;4.500;2022-08-19T01:47:09;10.18;;;7.53;;
72684;SDS011;61365;52.162;4.500;2022-08-19T01:49:36;10.52;;;7.03;;
72684;SDS011;61365;52.162;4.500;2022-08-19T01:52:06;12.25;;;7.38;;
72684;SDS011;61365;52.162;4.500;2022-08-19T01:54:32;10.98;;;8.25;;
72684;SDS011;61365;52.162;4.500;2022-08-19T01:57:01;14.00;;;8.80;;
72684;SDS011;61365;52.162;4.500;2022-08-19T02:01:59;13.55;;;9.25;;
72684;SDS011;61365;52.162;4.500;2022-08-19T02:04:25;14.63;;;9.07;;
72684;SDS011;61365;52.162;4.500;2022-08-19T02:06:52;17.85;;;8.82;;
72684;SDS011;61365;52.162;4.500;2022-08-19T02:09:19;14.25;;;9.18;;
72684;SDS011;61365;52.162;4.500;2022-08-19T02:11:45;15.02;;;9.60;;
72684;SDS011;61365;52.162;4.500;2022-08-19T02:14:12;14.88;;;8.60;;
72684;SDS011;61365;52.162;4.500;2022-08-19T02:16:38;18.25;;;11.07;;
72684;SDS011;61365;52.162;4.500;2022-08-19T02:19:08;18.63;;;10.25;;
72684;SDS011;61365;52.162;4.500;2022-08-19T02:21:36;15.57;;;10.00;;
72684;SDS011;61365;52.162;4.500;2022-08-19T02:24:03;15.40;;;10.68;;
72684;SDS011;61365;52.162;4.500;2022-08-19T02:26:31;19.05;;;12.32;;
72684;SDS011;61365;52.162;4.500;2022-08-19T02:28:58;20.42;;;12.88;;
72684;SDS011;61365;52.162;4.500;2022-08-19T02:31:26;21.75;;;14.30;;
72684;SDS011;61365;52.162;4.500;2022-08-19T02:33:54;22.20;;;15.02;;
72684;SDS011;61365;52.162;4.500;2022-08-19T02:36:21;30.25;;;17.23;;
72684;SDS011;61365;52.162;4.500;2022-08-19T02:38:50;27.70;;;17.33;;
72684;SDS011;61365;52.162;4.500;2022-08-19T02:41:18;24.88;;;17.38;;
72684;SDS011;61365;52.162;4.500;2022-08-19T02:43:58;30.13;;;19.38;;
72684;SDS011;61365;52.162;4.500;2022-08-19T02:46:29;31.45;;;21.42;;
72684;SDS011;61365;52.162;4.500;2022-08-19T02:49:00;35.38;;;21.52;;
72684;SDS011;61365;52.162;4.500;2022-08-19T02:51:32;33.95;;;21.15;;
72684;SDS011;61365;52.162;4.500;2022-08-19T02:54:06;36.67;;;23.50;;
72684;SDS011;61365;52.162;4.500;2022-08-19T02:56:34;37.25;;;22.98;;
72684;SDS011;61365;52.162;4.500;2022-08-19T02:59:04;31.15;;;20.13;;
72684;SDS011;61365;52.162;4.500;2022-08-19T03:04:06;32.92;;;19.83;;
72684;SDS011;61365;52.162;4.500;2022-08-19T03:06:38;33.13;;;22.23;;
72684;SDS011;61365;52.162;4.500;2022-08-19T03:11:34;40.90;;;23.50;;
72684;SDS011;61365;52.162;4.500;2022-08-19T03:14:01;40.55;;;23.00;;
72684;SDS011;61365;52.162;4.500;2022-08-19T03:16:31;34.47;;;20.67;;
72684;SDS011;61365;52.162;4.500;2022-08-19T03:19:01;31.17;;;20.02;;
72684;SDS011;61365;52.162;4.500;2022-08-19T03:21:29;33.22;;;21.13;;
72684;SDS011;61365;52.162;4.500;2022-08-19T03:23:59;34.83;;;21.35;;
72684;SDS011;61365;52.162;4.500;2022-08-19T03:26:29;37.78;;;20.85;;
72684;SDS011;61365;52.162;4.500;2022-08-19T03:28:56;30.77;;;20.40;;
72684;SDS011;61365;52.162;4.500;2022-08-19T03:31:23;33.97;;;21.80;;
72684;SDS011;61365;52.162;4.500;2022-08-19T03:33:51;37.28;;;21.98;;
72684;SDS011;61365;52.162;4.500;2022-08-19T03:36:19;35.20;;;21.83;;
72684;SDS011;61365;52.162;4.500;2022-08-19T03:38:49;44.03;;;23.27;;
72684;SDS011;61365;52.162;4.500;2022-08-19T03:41:21;41.35;;;22.08;;
72684;SDS011;61365;52.162;4.500;2022-08-19T03:43:51;35.35;;;21.27;;
72684;SDS011;61365;52.162;4.500;2022-08-19T03:46:21;36.65;;;21.90;;
72684;SDS011;61365;52.162;4.500;2022-08-19T03:48:52;34.25;;;23.27;;
72684;SDS011;61365;52.162;4.500;2022-08-19T03:51:29;39.08;;;22.63;;
72684;SDS011;61365;52.162;4.500;2022-08-19T03:54:01;41.67;;;22.85;;
72684;SDS011;61365;52.162;4.500;2022-08-19T03:56:30;41.17;;;23.52;;
72684;SDS011;61365;52.162;4.500;2022-08-19T03:59:00;40.28;;;22.52;;
72684;SDS011;61365;52.162;4.500;2022-08-19T04:01:28;40.42;;;23.05;;
72684;SDS011;61365;52.162;4.500;2022-08-19T04:03:55;27.30;;;16.45;;
72684;SDS011;61365;52.162;4.500;2022-08-19T04:06:31;33.90;;;21.15;;
72684;SDS011;61365;52.162;4.500;2022-08-19T04:09:03;31.52;;;19.73;;
72684;SDS011;61365;52.162;4.500;2022-08-19T04:11:36;40.50;;;22.55;;
72684;SDS011;61365;52.162;4.500;2022-08-19T04:14:17;40.92;;;24.73;;
72684;SDS011;61365;52.162;4.500;2022-08-19T04:16:47;40.08;;;22.45;;
72684;SDS011;61365;52.162;4.500;2022-08-19T04:19:15;43.00;;;24.05;;
72684;SDS011;61365;52.162;4.500;2022-08-19T04:21:44;41.45;;;23.98;;
72684;SDS011;61365;52.162;4.500;2022-08-19T04:24:14;40.13;;;24.15;;
72684;SDS011;61365;52.162;4.500;2022-08-19T04:26:41;47.38;;;25.50;;
72684;SDS011;61365;52.162;4.500;2022-08-19T04:29:10;35.63;;;22.10;;
72684;SDS011;61365;52.162;4.500;2022-08-19T04:31:41;48.03;;;27.35;;
72684;SDS011;61365;52.162;4.500;2022-08-19T04:34:12;47.78;;;25.85;;
72684;SDS011;61365;52.162;4.500;2022-08-19T04:36:42;44.95;;;25.63;;
72684;SDS011;61365;52.162;4.500;2022-08-19T04:39:11;48.97;;;27.70;;
72684;SDS011;61365;52.162;4.500;2022-08-19T04:41:41;45.60;;;26.75;;
72684;SDS011;61365;52.162;4.500;2022-08-19T04:44:28;46.72;;;27.20;;
72684;SDS011;61365;52.162;4.500;2022-08-19T04:47:01;51.30;;;27.98;;
72684;SDS011;61365;52.162;4.500;2022-08-19T04:49:31;57.60;;;31.80;;
72684;SDS011;61365;52.162;4.500;2022-08-19T04:51:57;56.55;;;30.40;;
72684;SDS011;61365;52.162;4.500;2022-08-19T04:54:24;55.40;;;31.63;;
72684;SDS011;61365;52.162;4.500;2022-08-19T04:56:51;56.70;;;32.10;;
72684;SDS011;61365;52.162;4.500;2022-08-19T04:59:19;52.33;;;29.25;;
72684;SDS011;61365;52.162;4.500;2022-08-19T05:01:47;69.13;;;35.15;;
72684;SDS011;61365;52.162;4.500;2022-08-19T05:04:16;59.53;;;30.27;;
72684;SDS011;61365;52.162;4.500;2022-08-19T05:06:49;61.17;;;31.70;;
72684;SDS011;61365;52.162;4.500;2022-08-19T05:09:17;61.28;;;31.73;;
72684;SDS011;61365;52.162;4.500;2022-08-19T05:11:44;65.05;;;32.67;;
72684;SDS011;61365;52.162;4.500;2022-08-19T05:14:10;60.75;;;34.05;;
72684;SDS011;61365;52.162;4.500;2022-08-19T05:16:39;57.28;;;30.90;;
72684;SDS011;61365;52.162;4.500;2022-08-19T05:19:06;55.10;;;30.70;;
72684;SDS011;61365;52.162;4.500;2022-08-19T05:21:51;63.03;;;32.72;;
72684;SDS011;61365;52.162;4.500;2022-08-19T05:24:36;52.50;;;26.60;;
72684;SDS011;61365;52.162;4.500;2022-08-19T05:27:03;56.60;;;28.90;;
72684;SDS011;61365;52.162;4.500;2022-08-19T05:29:31;53.65;;;28.08;;
72684;SDS011;61365;52.162;4.500;2022-08-19T05:32:03;66.65;;;32.08;;
72684;SDS011;61365;52.162;4.500;2022-08-19T05:34:31;50.53;;;27.45;;
72684;SDS011;61365;52.162;4.500;2022-08-19T05:36:59;60.90;;;30.90;;
72684;SDS011;61365;52.162;4.500;2022-08-19T05:39:30;55.58;;;28.30;;
72684;SDS011;61365;52.162;4.500;2022-08-19T05:42:02;57.78;;;30.00;;
72684;SDS011;61365;52.162;4.500;2022-08-19T05:44:33;57.17;;;31.40;;
72684;SDS011;61365;52.162;4.500;2022-08-19T05:47:05;52.88;;;25.52;;
72684;SDS011;61365;52.162;4.500;2022-08-19T05:49:34;73.50;;;33.50;;
72684;SDS011;61365;52.162;4.500;2022-08-19T05:52:06;56.70;;;28.05;;
72684;SDS011;61365;52.162;4.500;2022-08-19T05:54:37;66.22;;;31.27;;
72684;SDS011;61365;52.162;4.500;2022-08-19T05:57:08;51.03;;;26.52;;
72684;SDS011;61365;52.162;4.500;2022-08-19T05:59:36;51.22;;;27.50;;
72684;SDS011;61365;52.162;4.500;2022-08-19T06:02:03;53.95;;;27.85;;
72684;SDS011;61365;52.162;4.500;2022-08-19T06:04:32;41.85;;;24.17;;
72684;SDS011;61365;52.162;4.500;2022-08-19T06:06:59;59.63;;;29.45;;
72684;SDS011;61365;52.162;4.500;2022-08-19T06:09:27;43.53;;;23.92;;
72684;SDS011;61365;52.162;4.500;2022-08-19T06:11:55;42.58;;;23.15;;
72684;SDS011;61365;52.162;4.500;2022-08-19T06:14:27;58.83;;;28.17;;
72684;SDS011;61365;52.162;4.500;2022-08-19T06:16:57;45.65;;;23.25;;
72684;SDS011;61365;52.162;4.500;2022-08-19T06:19:25;47.60;;;21.55;;
72684;SDS011;61365;52.162;4.500;2022-08-19T06:21:52;47.50;;;23.80;;
72684;SDS011;61365;52.162;4.500;2022-08-19T06:24:20;39.25;;;21.63;;
72684;SDS011;61365;52.162;4.500;2022-08-19T06:26:50;39.60;;;21.92;;
72684;SDS011;61365;52.162;4.500;2022-08-19T06:29:20;40.10;;;19.95;;
72684;SDS011;61365;52.162;4.500;2022-08-19T06:31:50;37.20;;;19.77;;
72684;SDS011;61365;52.162;4.500;2022-08-19T06:34:20;32.78;;;18.25;;
72684;SDS011;61365;52.162;4.500;2022-08-19T06:36:49;36.95;;;18.55;;
72684;SDS011;61365;52.162;4.500;2022-08-19T06:39:25;32.88;;;17.88;;
72684;SDS011;61365;52.162;4.500;2022-08-19T06:41:55;30.48;;;15.85;;
72684;SDS011;61365;52.162;4.500;2022-08-19T06:44:28;29.80;;;18.35;;
72684;SDS011;61365;52.162;4.500;2022-08-19T06:47:01;29.38;;;16.42;;
72684;SDS011;61365;52.162;4.500;2022-08-19T06:49:33;38.10;;;17.13;;
72684;SDS011;61365;52.162;4.500;2022-08-19T06:52:01;38.50;;;18.38;;
72684;SDS011;61365;52.162;4.500;2022-08-19T06:54:29;32.78;;;15.85;;
72684;SDS011;61365;52.162;4.500;2022-08-19T06:56:56;28.85;;;14.30;;
72684;SDS011;61365;52.162;4.500;2022-08-19T06:59:28;27.53;;;15.50;;
72684;SDS011;61365;52.162;4.500;2022-08-19T07:01:59;26.30;;;12.45;;
72684;SDS011;61365;52.162;4.500;2022-08-19T07:04:31;34.38;;;14.65;;
72684;SDS011;61365;52.162;4.500;2022-08-19T07:07:01;33.35;;;13.35;;
72684;SDS011;61365;52.162;4.500;2022-08-19T07:09:36;21.77;;;10.70;;
72684;SDS011;61365;52.162;4.500;2022-08-19T07:12:08;25.13;;;11.10;;
72684;SDS011;61365;52.162;4.500;2022-08-19T07:14:39;22.85;;;10.93;;
72684;SDS011;61365;52.162;4.500;2022-08-19T07:17:06;26.58;;;11.40;;
72684;SDS011;61365;52.162;4.500;2022-08-19T07:19:38;23.85;;;11.23;;
72684;SDS011;61365;52.162;4.500;2022-08-19T07:22:07;20.73;;;10.02;;
72684;SDS011;61365;52.162;4.500;2022-08-19T07:24:35;17.85;;;9.32;;
72684;SDS011;61365;52.162;4.500;2022-08-19T07:27:03;21.13;;;10.68;;
72684;SDS011;61365;52.162;4.500;2022-08-19T07:29:32;18.30;;;8.82;;
72684;SDS011;61365;52.162;4.500;2022-08-19T07:32:01;24.80;;;8.93;;
72684;SDS011;61365;52.162;4.500;2022-08-19T07:34:29;21.20;;;9.95;;
72684;SDS011;61365;52.162;4.500;2022-08-19T07:36:58;19.83;;;8.98;;
72684;SDS011;61365;52.162;4.500;2022-08-19T07:39:26;17.48;;;7.63;;
72684;SDS011;61365;52.162;4.500;2022-08-19T07:41:57;19.33;;;8.13;;
72684;SDS011;61365;52.162;4.500;2022-08-19T07:44:26;21.40;;;8.38;;
72684;SDS011;61365;52.162;4.500;2022-08-19T07:46:54;18.55;;;7.68;;
72684;SDS011;61365;52.162;4.500;2022-08-19T07:49:22;10.88;;;6.25;;
72684;SDS011;61365;52.162;4.500;2022-08-19T07:52:02;12.98;;;5.90;;
72684;SDS011;61365;52.162;4.500;2022-08-19T07:54:33;12.07;;;5.00;;
72684;SDS011;61365;52.162;4.500;2022-08-19T07:57:03;11.68;;;4.47;;
72684;SDS011;61365;52.162;4.500;2022-08-19T07:59:31;10.85;;;4.15;;
72684;SDS011;61365;52.162;4.500;2022-08-19T08:01:58;10.88;;;4.63;;
72684;SDS011;61365;52.162;4.500;2022-08-19T08:04:28;11.57;;;4.30;;
72684;SDS011;61365;52.162;4.500;2022-08-19T08:07:14;15.63;;;5.28;;
72684;SDS011;61365;52.162;4.500;2022-08-19T08:10:00;11.60;;;4.45;;
72684;SDS011;61365;52.162;4.500;2022-08-19T08:12:28;17.95;;;5.25;;
72684;SDS011;61365;52.162;4.500;2022-08-19T08:15:11;13.45;;;4.38;;
72684;SDS011;61365;52.162;4.500;2022-08-19T08:17:44;10.98;;;5.18;;
72684;SDS011;61365;52.162;4.500;2022-08-19T08:20:11;9.98;;;4.35;;
72684;SDS011;61365;52.162;4.500;2022-08-19T08:22:42;9.25;;;4.68;;
72684;SDS011;61365;52.162;4.500;2022-08-19T08:25:29;8.75;;;4.03;;
72684;SDS011;61365;52.162;4.500;2022-08-19T08:27:57;12.55;;;5.15;;
72684;SDS011;61365;52.162;4.500;2022-08-19T08:30:26;14.55;;;4.80;;
72684;SDS011;61365;52.162;4.500;2022-08-19T08:32:55;11.15;;;4.50;;
72684;SDS011;61365;52.162;4.500;2022-08-19T08:35:22;10.52;;;4.88;;
72684;SDS011;61365;52.162;4.500;2022-08-19T08:37:51;12.05;;;5.28;;
72684;SDS011;61365;52.162;4.500;2022-08-19T08:43:00;12.48;;;5.00;;
72684;SDS011;61365;52.162;4.500;2022-08-19T08:45:38;13.10;;;4.95;;
72684;SDS011;61365;52.162;4.500;2022-08-19T08:48:18;10.70;;;4.63;;
72684;SDS011;61365;52.162;4.500;2022-08-19T08:50:58;12.45;;;4.55;;
72684;SDS011;61365;52.162;4.500;2022-08-19T08:53:29;11.45;;;4.45;;
72684;SDS011;61365;52.162;4.500;2022-08-19T08:56:00;8.93;;;3.92;;
72684;SDS011;61365;52.162;4.500;2022-08-19T08:58:41;10.27;;;4.10;;
72684;SDS011;61365;52.162;4.500;2022-08-19T09:01:36;10.10;;;3.65;;
72684;SDS011;61365;52.162;4.500;2022-08-19T09:04:03;9.98;;;4.50;;
72684;SDS011;61365;52.162;4.500;2022-08-19T09:06:40;12.75;;;4.78;;
72684;SDS011;61365;52.162;4.500;2022-08-19T09:09:26;8.52;;;3.63;;
72684;SDS011;61365;52.162;4.500;2022-08-19T09:12:09;26.30;;;4.85;;
72684;SDS011;61365;52.162;4.500;2022-08-19T09:15:34;10.77;;;3.65;;
72684;SDS011;61365;52.162;4.500;2022-08-19T09:18:10;12.40;;;4.07;;
72684;SDS011;61365;52.162;4.500;2022-08-19T09:20:37;12.82;;;3.83;;
72684;SDS011;61365;52.162;4.500;2022-08-19T09:23:03;11.68;;;4.03;;
72684;SDS011;61365;52.162;4.500;2022-08-19T09:25:30;12.52;;;3.65;;
72684;SDS011;61365;52.162;4.500;2022-08-19T09:27:57;11.90;;;3.42;;
72684;SDS011;61365;52.162;4.500;2022-08-19T09:30:39;11.52;;;3.35;;
72684;SDS011;61365;52.162;4.500;2022-08-19T09:33:07;9.35;;;3.90;;
72684;SDS011;61365;52.162;4.500;2022-08-19T09:35:33;9.57;;;3.05;;
72684;SDS011;61365;52.162;4.500;2022-08-19T09:38:01;8.35;;;3.08;;
72684;SDS011;61365;52.162;4.500;2022-08-19T09:40:28;13.75;;;3.95;;
72684;SDS011;61365;52.162;4.500;2022-08-19T09:42:56;7.78;;;2.83;;
72684;SDS011;61365;52.162;4.500;2022-08-19T09:45:28;8.27;;;2.60;;
72684;SDS011;61365;52.162;4.500;2022-08-19T09:47:55;6.45;;;2.92;;
72684;SDS011;61365;52.162;4.500;2022-08-19T09:50:22;10.40;;;2.88;;
72684;SDS011;61365;52.162;4.500;2022-08-19T09:52:49;10.27;;;3.40;;
72684;SDS011;61365;52.162;4.500;2022-08-19T09:55:18;9.07;;;2.47;;
72684;SDS011;61365;52.162;4.500;2022-08-19T09:57:44;8.93;;;3.10;;
72684;SDS011;61365;52.162;4.500;2022-08-19T10:00:11;8.35;;;2.40;;
72684;SDS011;61365;52.162;4.500;2022-08-19T10:02:37;8.00;;;2.70;;
72684;SDS011;61365;52.162;4.500;2022-08-19T10:05:04;5.72;;;2.10;;
72684;SDS011;61365;52.162;4.500;2022-08-19T10:07:49;5.97;;;2.33;;
72684;SDS011;61365;52.162;4.500;2022-08-19T10:10:16;9.90;;;2.72;;
72684;SDS011;61365;52.162;4.500;2022-08-19T10:12:43;3.88;;;1.95;;
72684;SDS011;61365;52.162;4.500;2022-08-19T10:15:12;5.95;;;2.28;;
72684;SDS011;61365;52.162;4.500;2022-08-19T10:17:39;4.20;;;2.08;;
72684;SDS011;61365;52.162;4.500;2022-08-19T10:20:05;6.78;;;2.40;;
72684;SDS011;61365;52.162;4.500;2022-08-19T10:22:32;10.70;;;2.53;;
72684;SDS011;61365;52.162;4.500;2022-08-19T10:25:01;5.40;;;2.40;;
72684;SDS011;61365;52.162;4.500;2022-08-19T10:27:27;7.30;;;3.20;;
72684;SDS011;61365;52.162;4.500;2022-08-19T10:29:54;6.03;;;2.67;;
72684;SDS011;61365;52.162;4.500;2022-08-19T10:32:20;9.55;;;2.70;;
72684;SDS011;61365;52.162;4.500;2022-08-19T10:34:47;8.82;;;2.85;;
72684;SDS011;61365;52.162;4.500;2022-08-19T10:37:16;6.95;;;2.30;;
72684;SDS011;61365;52.162;4.500;2022-08-19T10:39:45;5.68;;;2.05;;
72684;SDS011;61365;52.162;4.500;2022-08-19T10:42:13;5.78;;;2.30;;
72684;SDS011;61365;52.162;4.500;2022-08-19T10:44:40;5.70;;;2.13;;
72684;SDS011;61365;52.162;4.500;2022-08-19T10:47:07;5.15;;;2.05;;
72684;SDS011;61365;52.162;4.500;2022-08-19T10:49:34;7.78;;;2.30;;
72684;SDS011;61365;52.162;4.500;2022-08-19T10:52:20;6.82;;;2.17;;
72684;SDS011;61365;52.162;4.500;2022-08-19T10:55:03;5.18;;;2.10;;
72684;SDS011;61365;52.162;4.500;2022-08-19T10:57:51;5.30;;;2.08;;
72684;SDS011;61365;52.162;4.500;2022-08-19T11:00:19;6.07;;;1.70;;
72684;SDS011;61365;52.162;4.500;2022-08-19T11:02:47;5.28;;;1.80;;
72684;SDS011;61365;52.162;4.500;2022-08-19T11:05:13;5.57;;;2.03;;
72684;SDS011;61365;52.162;4.500;2022-08-19T11:07:41;4.40;;;1.70;;
72684;SDS011;61365;52.162;4.500;2022-08-19T11:10:10;5.05;;;1.70;;
72684;SDS011;61365;52.162;4.500;2022-08-19T11:12:40;5.18;;;1.80;;
72684;SDS011;61365;52.162;4.500;2022-08-19T11:15:07;5.93;;;1.58;;
72684;SDS011;61365;52.162;4.500;2022-08-19T11:17:39;3.53;;;1.42;;
72684;SDS011;61365;52.162;4.500;2022-08-19T11:22:38;3.78;;;1.35;;
72684;SDS011;61365;52.162;4.500;2022-08-19T11:25:06;4.13;;;1.58;;
72684;SDS011;61365;52.162;4.500;2022-08-19T11:27:41;4.20;;;1.60;;
72684;SDS011;61365;52.162;4.500;2022-08-19T11:30:10;4.03;;;1.58;;
72684;SDS011;61365;52.162;4.500;2022-08-19T11:32:41;5.15;;;1.30;;
72684;SDS011;61365;52.162;4.500;2022-08-19T11:35:08;7.80;;;1.90;;
72684;SDS011;61365;52.162;4.500;2022-08-19T11:37:36;5.68;;;1.38;;
72684;SDS011;61365;52.162;4.500;2022-08-19T11:40:04;2.80;;;1.25;;
72684;SDS011;61365;52.162;4.500;2022-08-19T11:42:32;4.13;;;1.40;;
72684;SDS011;61365;52.162;4.500;2022-08-19T11:45:17;5.13;;;1.60;;
72684;SDS011;61365;52.162;4.500;2022-08-19T11:47:43;4.57;;;1.50;;
72684;SDS011;61365;52.162;4.500;2022-08-19T11:50:10;5.78;;;1.73;;
72684;SDS011;61365;52.162;4.500;2022-08-19T11:52:36;6.53;;;1.88;;
72684;SDS011;61365;52.162;4.500;2022-08-19T11:55:02;7.32;;;1.75;;
72684;SDS011;61365;52.162;4.500;2022-08-19T11:57:29;4.60;;;1.40;;
72684;SDS011;61365;52.162;4.500;2022-08-19T11:59:55;3.92;;;1.27;;
72684;SDS011;61365;52.162;4.500;2022-08-19T12:02:22;4.70;;;1.50;;
72684;SDS011;61365;52.162;4.500;2022-08-19T12:04:49;5.53;;;1.30;;
72684;SDS011;61365;52.162;4.500;2022-08-19T12:07:15;2.50;;;1.27;;
72684;SDS011;61365;52.162;4.500;2022-08-19T12:09:41;3.40;;;1.42;;
72684;SDS011;61365;52.162;4.500;2022-08-19T12:12:08;4.22;;;1.10;;
72684;SDS011;61365;52.162;4.500;2022-08-19T12:14:35;3.83;;;1.23;;
72684;SDS011;61365;52.162;4.500;2022-08-19T12:17:02;4.40;;;1.30;;
72684;SDS011;61365;52.162;4.500;2022-08-19T12:19:30;2.90;;;1.25;;
72684;SDS011;61365;52.162;4.500;2022-08-19T12:22:00;23.27;;;2.50;;
72684;SDS011;61365;52.162;4.500;2022-08-19T12:24:32;5.55;;;1.50;;
72684;SDS011;61365;52.162;4.500;2022-08-19T12:26:59;6.20;;;1.52;;
72684;SDS011;61365;52.162;4.500;2022-08-19T12:29:27;3.22;;;1.30;;
72684;SDS011;61365;52.162;4.500;2022-08-19T12:31:55;3.28;;;1.30;;
72684;SDS011;61365;52.162;4.500;2022-08-19T12:36:58;2.83;;;1.27;;
72684;SDS011;61365;52.162;4.500;2022-08-19T12:39:29;5.63;;;1.58;;
72684;SDS011;61365;52.162;4.500;2022-08-19T12:41:56;3.88;;;1.27;;
72684;SDS011;61365;52.162;4.500;2022-08-19T12:44:23;5.72;;;1.60;;
72684;SDS011;61365;52.162;4.500;2022-08-19T12:46:49;7.95;;;1.50;;
72684;SDS011;61365;52.162;4.500;2022-08-19T12:49:16;4.75;;;1.15;;
72684;SDS011;61365;52.162;4.500;2022-08-19T12:51:42;3.72;;;1.50;;
72684;SDS011;61365;52.162;4.500;2022-08-19T12:54:09;4.07;;;1.70;;
72684;SDS011;61365;52.162;4.500;2022-08-19T12:56:35;6.22;;;1.20;;
72684;SDS011;61365;52.162;4.500;2022-08-19T12:59:03;4.15;;;1.35;;
72684;SDS011;61365;52.162;4.500;2022-08-19T13:01:30;3.13;;;1.27;;
72684;SDS011;61365;52.162;4.500;2022-08-19T13:03:58;4.40;;;1.55;;
72684;SDS011;61365;52.162;4.500;2022-08-19T13:06:25;3.67;;;1.33;;
72684;SDS011;61365;52.162;4.500;2022-08-19T13:08:53;9.73;;;1.42;;
72684;SDS011;61365;52.162;4.500;2022-08-19T13:11:21;2.40;;;1.30;;
72684;SDS011;61365;52.162;4.500;2022-08-19T13:13:50;3.92;;;1.33;;
72684;SDS011;61365;52.162;4.500;2022-08-19T13:16:20;1.98;;;0.93;;
72684;SDS011;61365;52.162;4.500;2022-08-19T13:18:47;5.72;;;1.30;;
72684;SDS011;61365;52.162;4.500;2022-08-19T13:21:18;2.97;;;1.65;;
72684;SDS011;61365;52.162;4.500;2022-08-19T13:23:48;7.25;;;1.55;;
72684;SDS011;61365;52.162;4.500;2022-08-19T13:26:16;4.63;;;1.50;;
72684;SDS011;61365;52.162;4.500;2022-08-19T13:28:43;3.72;;;1.63;;
72684;SDS011;61365;52.162;4.500;2022-08-19T13:31:30;3.60;;;1.60;;
72684;SDS011;61365;52.162;4.500;2022-08-19T13:34:19;4.57;;;1.63;;
72684;SDS011;61365;52.162;4.500;2022-08-19T13:36:55;5.07;;;1.70;;
72684;SDS011;61365;52.162;4.500;2022-08-19T13:39:22;4.88;;;1.67;;
72684;SDS011;61365;52.162;4.500;2022-08-19T13:41:49;4.22;;;1.80;;
72684;SDS011;61365;52.162;4.500;2022-08-19T13:44:16;3.58;;;1.80;;
72684;SDS011;61365;52.162;4.500;2022-08-19T13:46:44;1.65;;;1.10;;
72684;SDS011;61365;52.162;4.500;2022-08-19T13:49:14;5.53;;;1.40;;
72684;SDS011;61365;52.162;4.500;2022-08-19T13:51:42;3.92;;;1.67;;
72684;SDS011;61365;52.162;4.500;2022-08-19T13:54:09;3.45;;;1.30;;
72684;SDS011;61365;52.162;4.500;2022-08-19T13:56:41;3.85;;;1.60;;
72684;SDS011;61365;52.162;4.500;2022-08-19T13:59:11;4.60;;;1.65;;
72684;SDS011;61365;52.162;4.500;2022-08-19T14:01:39;7.20;;;1.73;;
72684;SDS011;61365;52.162;4.500;2022-08-19T14:04:07;2.35;;;1.60;;
72684;SDS011;61365;52.162;4.500;2022-08-19T14:06:34;2.50;;;1.30;;
72684;SDS011;61365;52.162;4.500;2022-08-19T14:09:01;4.78;;;1.30;;
72684;SDS011;61365;52.162;4.500;2022-08-19T14:11:28;3.20;;;1.40;;
72684;SDS011;61365;52.162;4.500;2022-08-19T14:13:55;4.32;;;1.75;;
72684;SDS011;61365;52.162;4.500;2022-08-19T14:16:22;1.80;;;1.30;;
72684;SDS011;61365;52.162;4.500;2022-08-19T14:18:48;3.92;;;1.40;;
72684;SDS011;61365;52.162;4.500;2022-08-19T14:21:19;3.80;;;1.20;;
72684;SDS011;61365;52.162;4.500;2022-08-19T14:23:49;3.00;;;1.77;;
72684;SDS011;61365;52.162;4.500;2022-08-19T14:26:16;8.68;;;1.20;;
72684;SDS011;61365;52.162;4.500;2022-08-19T14:28:46;4.90;;;1.65;;
72684;SDS011;61365;52.162;4.500;2022-08-19T14:31:13;2.83;;;1.20;;
72684;SDS011;61365;52.162;4.500;2022-08-19T14:33:47;3.03;;;1.73;;
72684;SDS011;61365;52.162;4.500;2022-08-19T14:36:14;2.85;;;1.70;;
72684;SDS011;61365;52.162;4.500;2022-08-19T14:38:41;4.15;;;1.63;;
72684;SDS011;61365;52.162;4.500;2022-08-19T14:41:26;3.58;;;1.70;;
72684;SDS011;61365;52.162;4.500;2022-08-19T14:43:53;4.25;;;1.80;;
72684;SDS011;61365;52.162;4.500;2022-08-19T14:46:21;8.75;;;1.83;;
72684;SDS011;61365;52.162;4.500;2022-08-19T14:48:53;4.20;;;1.77;;
72684;SDS011;61365;52.162;4.500;2022-08-19T14:51:22;3.45;;;1.45;;
72684;SDS011;61365;52.162;4.500;2022-08-19T14:53:52;4.32;;;2.38;;
72684;SDS011;61365;52.162;4.500;2022-08-19T14:56:21;3.80;;;2.00;;
72684;SDS011;61365;52.162;4.500;2022-08-19T14:58:52;5.55;;;2.00;;
72684;SDS011;61365;52.162;4.500;2022-08-19T15:01:19;4.55;;;1.63;;
72684;SDS011;61365;52.162;4.500;2022-08-19T15:03:48;4.45;;;1.67;;
72684;SDS011;61365;52.162;4.500;2022-08-19T15:06:18;5.43;;;1.90;;
72684;SDS011;61365;52.162;4.500;2022-08-19T15:08:45;5.90;;;2.00;;
72684;SDS011;61365;52.162;4.500;2022-08-19T15:11:16;4.45;;;1.60;;